createdAt,value
2019-01-17T00:00:32.570Z,0.90
2019-01-17T00:03:17.241Z,1.10
2019-01-17T00:05:53.377Z,0.83
2019-01-17T00:08:39.646Z,1.03
2019-01-17T00:11:12.425Z,0.90
2019-01-17T00:13:42.310Z,1.17
2019-01-17T00:16:12.194Z,0.80
2019-01-17T00:18:48.113Z,0.80
2019-01-17T00:21:30.237Z,0.93
2019-01-17T00:24:06.287Z,1.00
2019-01-17T00:26:36.164Z,1.10
2019-01-17T00:29:14.593Z,0.80
2019-01-17T00:31:47.473Z,0.87
2019-01-17T00:34:17.372Z,1.20
2019-01-17T00:36:59.538Z,1.03
2019-01-17T00:39:35.415Z,0.77
2019-01-17T00:42:05.309Z,1.10
2019-01-17T00:44:38.370Z,1.20
2019-01-17T00:47:23.692Z,1.10
2019-01-17T00:50:08.622Z,0.93
2019-01-17T00:52:53.401Z,0.93
2019-01-17T00:55:23.288Z,0.90
2019-01-17T00:57:59.253Z,1.23
2019-01-17T01:00:47.713Z,1.10
2019-01-17T01:03:17.589Z,0.70
2019-01-17T01:06:05.492Z,0.97
2019-01-17T01:08:51.626Z,0.97
2019-01-17T01:11:30.377Z,1.07
2019-01-17T01:14:09.331Z,0.97
2019-01-17T01:16:58.561Z,1.10
2019-01-17T01:19:31.586Z,0.90
2019-01-17T01:22:10.640Z,0.97
2019-01-17T01:24:57.121Z,0.80
2019-01-17T01:27:39.314Z,0.90
2019-01-17T01:30:12.711Z,1.10
2019-01-17T01:32:48.699Z,0.90
2019-01-17T01:35:27.559Z,0.80
2019-01-17T01:38:00.455Z,0.90
2019-01-17T01:40:30.325Z,1.00
2019-01-17T01:43:00.233Z,1.03
2019-01-17T01:45:30.098Z,0.83
2019-01-17T01:48:05.713Z,1.00
2019-01-17T01:50:50.620Z,0.97
2019-01-17T01:53:18.861Z,0.80
2019-01-17T01:55:47.117Z,0.70
2019-01-17T01:58:15.357Z,1.07
2019-01-17T02:00:43.589Z,0.77
2019-01-17T02:03:11.998Z,1.10
2019-01-17T02:05:40.233Z,0.80
2019-01-17T02:08:08.954Z,0.73
2019-01-17T02:10:37.186Z,0.80
2019-01-17T02:13:05.459Z,0.70
2019-01-17T02:15:33.682Z,0.93
2019-01-17T02:18:01.927Z,0.90
2019-01-17T02:20:30.158Z,1.13
2019-01-17T02:22:58.401Z,0.80
2019-01-17T02:25:26.681Z,1.00
2019-01-17T02:27:54.953Z,0.90
2019-01-17T02:30:23.200Z,0.73
2019-01-17T02:32:51.446Z,0.60
2019-01-17T02:35:19.677Z,0.90
2019-01-17T02:37:47.931Z,0.63
2019-01-17T02:40:16.208Z,0.87
2019-01-17T02:42:44.493Z,0.80
2019-01-17T02:45:13.565Z,0.77
2019-01-17T02:47:41.837Z,0.93
2019-01-17T02:50:11.311Z,0.70
2019-01-17T02:52:39.543Z,0.90
2019-01-17T02:55:09.926Z,0.90
2019-01-17T02:57:38.153Z,0.80
2019-01-17T03:00:12.045Z,0.70
2019-01-17T03:02:40.314Z,0.87
2019-01-17T03:05:08.561Z,0.73
2019-01-17T03:07:36.796Z,1.07
2019-01-17T03:10:13.549Z,1.10
2019-01-17T03:12:41.829Z,0.60
2019-01-17T03:15:10.112Z,1.10
2019-01-17T03:17:38.342Z,0.70
2019-01-17T03:20:09.525Z,0.70
2019-01-17T03:22:37.763Z,0.73
2019-01-17T03:25:07.946Z,0.70
2019-01-17T03:27:36.176Z,0.70
2019-01-17T03:30:07.747Z,0.70
2019-01-17T03:32:35.982Z,0.70
2019-01-17T03:35:04.865Z,0.60
2019-01-17T03:37:33.662Z,0.90
2019-01-17T03:40:01.919Z,0.80
2019-01-17T03:42:31.308Z,0.70
2019-01-17T03:44:59.774Z,0.73
2019-01-17T03:47:28.011Z,0.70
2019-01-17T03:49:56.343Z,0.60
2019-01-17T03:52:24.569Z,0.70
2019-01-17T03:54:53.989Z,0.60
2019-01-17T03:57:22.430Z,0.83
2019-01-17T03:59:50.682Z,0.90
2019-01-17T04:02:18.914Z,0.67
2019-01-17T04:04:47.169Z,0.70
2019-01-17T04:07:15.416Z,0.60
2019-01-17T04:09:43.638Z,0.60
2019-01-17T04:12:11.893Z,0.80
2019-01-17T04:14:40.125Z,0.80
2019-01-17T04:17:08.374Z,0.80
2019-01-17T04:19:36.607Z,0.70
2019-01-17T04:22:04.858Z,0.80
2019-01-17T04:24:33.153Z,0.80
2019-01-17T04:27:01.401Z,0.73
2019-01-17T04:29:29.633Z,0.60
2019-01-17T04:31:57.889Z,0.60
2019-01-17T04:34:26.123Z,0.63
2019-01-17T04:36:54.357Z,0.70
2019-01-17T04:39:22.594Z,0.60
2019-01-17T04:41:50.852Z,0.57
2019-01-17T04:44:19.157Z,0.53
2019-01-17T04:46:47.398Z,0.80
2019-01-17T04:49:15.633Z,0.60
2019-01-17T04:51:43.865Z,0.57
2019-01-17T04:54:12.103Z,0.50
2019-01-17T04:56:40.341Z,0.60
2019-01-17T04:59:08.574Z,0.60
2019-01-17T05:01:36.817Z,0.70
2019-01-17T05:04:05.056Z,0.73
2019-01-17T05:06:33.293Z,0.40
2019-01-17T05:09:01.526Z,0.50
2019-01-17T05:11:29.779Z,0.67
2019-01-17T05:13:58.013Z,0.57
2019-01-17T05:16:26.253Z,0.73
2019-01-17T05:18:54.484Z,0.57
2019-01-17T05:21:22.748Z,1.00
2019-01-17T05:23:50.986Z,0.50
2019-01-17T05:26:19.214Z,0.80
2019-01-17T05:28:47.533Z,0.70
2019-01-17T05:31:15.770Z,1.00
2019-01-17T05:33:44.025Z,1.00
2019-01-17T05:36:12.254Z,1.07
2019-01-17T05:38:40.497Z,1.10
2019-01-17T05:41:08.739Z,1.00
2019-01-17T05:43:36.978Z,1.10
2019-01-17T05:46:05.209Z,1.20
2019-01-17T05:48:33.457Z,0.87
2019-01-17T05:51:01.700Z,1.00
2019-01-17T05:53:29.942Z,1.03
2019-01-17T05:55:58.192Z,1.20
2019-01-17T05:58:26.433Z,0.90
2019-01-17T06:00:54.679Z,0.90
2019-01-17T06:03:22.902Z,1.20
2019-01-17T06:05:51.134Z,1.00
2019-01-17T06:08:19.380Z,0.97
2019-01-17T06:10:47.619Z,1.10
2019-01-17T06:13:15.857Z,0.90
2019-01-17T06:15:44.569Z,1.13
2019-01-17T06:18:12.806Z,1.10
2019-01-17T06:20:41.046Z,1.20
2019-01-17T06:23:09.277Z,1.20
2019-01-17T06:25:37.806Z,1.40
2019-01-17T06:28:06.033Z,1.07
2019-01-17T06:30:34.277Z,1.00
2019-01-17T06:33:02.514Z,0.80
2019-01-17T06:35:30.756Z,1.00
2019-01-17T06:37:58.989Z,2.10
2019-01-17T06:40:29.068Z,1.57
2019-01-17T06:42:57.316Z,1.47
2019-01-17T06:45:25.562Z,1.30
2019-01-17T06:47:53.806Z,1.10
2019-01-17T06:50:22.042Z,1.23
2019-01-17T06:52:50.275Z,1.10
2019-01-17T06:55:18.525Z,1.43
2019-01-17T06:57:46.761Z,1.00
2019-01-17T07:00:16.536Z,1.37
2019-01-17T07:02:44.776Z,1.20
2019-01-17T07:05:14.253Z,1.10
2019-01-17T07:07:42.491Z,0.97
2019-01-17T07:10:15.863Z,1.07
2019-01-17T07:12:44.094Z,1.00
2019-01-17T07:15:12.395Z,1.00
2019-01-17T07:17:40.916Z,1.10
2019-01-17T07:20:12.042Z,0.80
2019-01-17T07:22:40.287Z,0.80
2019-01-17T07:25:09.766Z,0.90
2019-01-17T07:27:38.006Z,1.00
2019-01-17T07:30:09.653Z,0.90
2019-01-17T07:32:37.889Z,1.00
2019-01-17T07:35:07.457Z,1.13
2019-01-17T07:37:35.701Z,1.07
2019-01-17T07:40:05.569Z,0.73
2019-01-17T07:42:33.819Z,0.87
2019-01-17T07:45:02.046Z,0.70
2019-01-17T07:47:30.288Z,1.07
2019-01-17T07:49:58.535Z,0.80
2019-01-17T07:52:26.781Z,0.77
2019-01-17T07:54:55.036Z,1.10
2019-01-17T07:57:23.277Z,0.67
2019-01-17T07:59:52.362Z,1.10
2019-01-17T08:02:21.018Z,0.50
2019-01-17T08:04:49.917Z,0.80
2019-01-17T08:07:18.189Z,0.90
2019-01-17T08:09:46.417Z,0.60
2019-01-17T08:12:14.687Z,0.70
2019-01-17T08:14:42.923Z,0.70
2019-01-17T08:17:11.173Z,1.00
2019-01-17T08:19:39.405Z,0.80
2019-01-17T08:22:07.734Z,0.90
2019-01-17T08:24:36.033Z,0.90
2019-01-17T08:27:04.434Z,1.10
2019-01-17T08:29:32.682Z,0.60
2019-01-17T08:32:01.254Z,0.63
2019-01-17T08:34:29.501Z,0.70
2019-01-17T08:36:58.147Z,0.77
2019-01-17T08:39:26.506Z,0.50
2019-01-17T08:41:54.745Z,1.00
2019-01-17T08:44:23.002Z,0.90
2019-01-17T08:46:51.245Z,0.60
2019-01-17T08:49:19.782Z,0.60
2019-01-17T08:51:47.978Z,0.90
2019-01-17T08:54:16.281Z,0.67
2019-01-17T08:56:44.583Z,0.53
2019-01-17T08:59:12.912Z,0.60
2019-01-17T09:01:41.138Z,0.77
2019-01-17T09:04:09.381Z,0.63
2019-01-17T09:06:37.614Z,0.70
2019-01-17T09:09:08.758Z,0.60
2019-01-17T09:11:36.989Z,0.63
2019-01-17T09:14:06.523Z,0.77
2019-01-17T09:16:34.980Z,0.77
2019-01-17T09:19:03.288Z,0.60
2019-01-17T09:21:31.522Z,0.70
2019-01-17T09:23:59.768Z,0.80
2019-01-17T09:26:28.015Z,0.60
2019-01-17T09:28:56.254Z,0.50
2019-01-17T09:31:24.493Z,0.60
2019-01-17T09:33:52.967Z,0.70
2019-01-17T09:36:21.204Z,0.57
2019-01-17T09:38:49.445Z,0.60
2019-01-17T09:41:17.694Z,0.50
2019-01-17T09:43:45.935Z,1.10
2019-01-17T09:46:14.224Z,0.70
2019-01-17T09:48:42.463Z,0.60
2019-01-17T09:51:10.764Z,0.47
2019-01-17T09:53:39.002Z,0.50
2019-01-17T09:56:08.103Z,0.50
2019-01-17T09:58:37.353Z,0.60
2019-01-17T10:01:05.601Z,0.50
2019-01-17T10:03:33.834Z,0.50
2019-01-17T10:06:02.362Z,0.67
2019-01-17T10:08:30.599Z,0.53
2019-01-17T10:10:58.846Z,0.60
2019-01-17T10:13:31.999Z,0.33
2019-01-17T10:16:00.310Z,0.57
2019-01-17T10:18:34.693Z,0.67
2019-01-17T10:21:15.185Z,0.60
2019-01-17T10:24:13.926Z,0.50
2019-01-17T10:26:50.909Z,0.60
2019-01-17T10:29:27.905Z,0.60
2019-01-17T10:32:14.437Z,0.50
2019-01-17T10:35:06.665Z,0.40
2019-01-17T10:38:03.894Z,0.50
2019-01-17T10:40:50.402Z,0.40
2019-01-17T10:43:24.513Z,0.50
2019-01-17T10:46:14.954Z,0.50
2019-01-17T10:48:49.318Z,0.60
2019-01-17T10:51:23.978Z,0.30
2019-01-17T10:53:55.482Z,0.40
2019-01-17T10:56:41.342Z,0.70
2019-01-17T10:59:20.534Z,0.50
2019-01-17T11:02:04.154Z,0.60
2019-01-17T11:04:41.460Z,0.50
2019-01-17T11:07:27.993Z,0.53
2019-01-17T11:10:08.445Z,0.40
2019-01-17T11:12:52.130Z,0.40
2019-01-17T11:15:26.535Z,0.50
2019-01-17T11:18:25.055Z,0.43
2019-01-17T11:21:16.171Z,0.57
2019-01-17T11:23:59.633Z,0.47
2019-01-17T11:26:43.225Z,0.40
2019-01-17T11:29:17.442Z,0.60
2019-01-17T11:32:03.521Z,0.50
2019-01-17T11:34:46.234Z,0.40
2019-01-17T11:37:47.733Z,0.43
2019-01-17T11:40:30.985Z,0.30
2019-01-17T11:43:02.479Z,0.50
2019-01-17T11:45:36.676Z,0.60
2019-01-17T11:48:08.250Z,0.47
2019-01-17T11:50:59.474Z,0.50
2019-01-17T11:53:43.103Z,0.60
2019-01-17T11:56:20.694Z,0.47
2019-01-17T11:59:00.219Z,0.40
2019-01-17T12:01:59.053Z,0.40
2019-01-17T12:04:33.998Z,0.50
2019-01-17T12:07:10.173Z,0.40
2019-01-17T12:09:38.420Z,0.50
2019-01-17T12:12:06.644Z,0.50
2019-01-17T12:14:34.891Z,0.40
2019-01-17T12:17:03.209Z,0.50
2019-01-17T12:19:31.459Z,0.40
2019-01-17T12:21:59.690Z,0.40
2019-01-17T12:24:27.929Z,0.40
2019-01-17T12:26:56.165Z,0.50
2019-01-17T12:29:24.403Z,1.00
2019-01-17T12:31:52.651Z,0.60
2019-01-17T12:34:20.902Z,0.87
2019-01-17T12:36:49.145Z,1.30
2019-01-17T12:39:17.377Z,1.20
2019-01-17T12:41:45.625Z,1.20
2019-01-17T12:44:13.893Z,1.40
2019-01-17T12:46:42.133Z,0.93
2019-01-17T12:49:10.374Z,1.10
2019-01-17T12:51:38.617Z,0.90
2019-01-17T12:54:06.941Z,1.10
2019-01-17T12:56:35.495Z,1.80
2019-01-17T12:59:04.180Z,1.30
2019-01-17T13:01:32.422Z,1.13
2019-01-17T13:04:00.666Z,1.33
2019-01-17T13:06:28.900Z,1.47
2019-01-17T13:08:57.138Z,1.63
2019-01-17T13:11:25.381Z,1.30
2019-01-17T13:13:53.613Z,1.07
2019-01-17T13:16:21.893Z,1.50
2019-01-17T13:18:50.126Z,1.00
2019-01-17T13:21:18.362Z,1.83
2019-01-17T13:23:46.604Z,1.80
2019-01-17T13:26:14.841Z,1.27
2019-01-17T13:28:43.153Z,1.20
2019-01-17T13:31:11.389Z,2.17
2019-01-17T13:33:39.652Z,2.07
2019-01-17T13:36:09.693Z,1.93
2019-01-17T13:38:38.022Z,2.30
2019-01-17T13:41:06.254Z,1.87
2019-01-17T13:43:34.521Z,1.60
2019-01-17T13:46:02.833Z,1.53
2019-01-17T13:48:31.079Z,2.13
2019-01-17T13:50:59.370Z,2.07
2019-01-17T13:53:27.705Z,2.20
2019-01-17T13:55:55.999Z,2.10
2019-01-17T13:58:24.250Z,1.70
2019-01-17T14:00:52.500Z,1.57
2019-01-17T14:03:20.758Z,2.23
2019-01-17T14:05:49.005Z,2.23
2019-01-17T14:08:17.624Z,2.27
2019-01-17T14:10:45.896Z,1.87
2019-01-17T14:13:14.445Z,2.00
2019-01-17T14:15:42.961Z,2.10
2019-01-17T14:18:11.201Z,2.40
2019-01-17T14:20:39.450Z,2.40
2019-01-17T14:23:07.686Z,2.53
2019-01-17T14:25:36.052Z,2.53
2019-01-17T14:28:04.476Z,2.17
2019-01-17T14:30:34.035Z,1.93
2019-01-17T14:33:02.301Z,2.23
2019-01-17T14:35:30.597Z,2.37
2019-01-17T14:37:58.843Z,2.63
2019-01-17T14:40:27.092Z,2.47
2019-01-17T14:42:55.335Z,2.20
2019-01-17T14:45:23.592Z,3.27
2019-01-17T14:47:51.853Z,2.37
2019-01-17T14:50:30.810Z,2.20
2019-01-17T14:53:00.800Z,3.03
2019-01-17T14:55:32.371Z,2.43
2019-01-17T14:58:00.628Z,2.17
2019-01-17T15:00:32.636Z,2.43
2019-01-17T15:03:00.916Z,2.30
2019-01-17T15:05:29.187Z,2.03
2019-01-17T15:07:57.402Z,1.97
2019-01-17T15:10:31.673Z,1.97
2019-01-17T15:12:59.925Z,1.73
2019-01-17T15:15:28.165Z,2.37
2019-01-17T15:17:56.502Z,2.40
2019-01-17T15:20:24.748Z,2.60
2019-01-17T15:22:53.268Z,1.80
2019-01-17T15:25:21.586Z,2.20
2019-01-17T15:27:49.834Z,2.23
2019-01-17T15:30:25.210Z,2.03
2019-01-17T15:32:53.841Z,1.57
2019-01-17T15:35:22.089Z,2.20
2019-01-17T15:37:50.336Z,1.93
2019-01-17T15:40:23.817Z,1.93
2019-01-17T15:42:52.332Z,2.07
2019-01-17T15:45:21.236Z,1.67
2019-01-17T15:47:49.478Z,1.60
2019-01-17T15:50:18.944Z,1.63
2019-01-17T15:52:47.315Z,2.00
2019-01-17T15:55:16.480Z,1.57
2019-01-17T15:57:44.817Z,1.83
2019-01-17T16:00:18.969Z,1.60
2019-01-17T16:02:47.346Z,2.00
2019-01-17T16:05:15.660Z,1.57
2019-01-17T16:07:43.940Z,1.67
2019-01-17T16:10:16.449Z,2.00
2019-01-17T16:12:44.686Z,1.80
2019-01-17T16:15:15.659Z,1.67
2019-01-17T16:17:43.972Z,1.70
2019-01-17T16:20:14.658Z,1.40
2019-01-17T16:22:42.894Z,2.17
2019-01-17T16:25:13.114Z,1.50
2019-01-17T16:27:41.990Z,2.00
2019-01-17T16:30:19.285Z,2.10
2019-01-17T16:32:47.529Z,2.10
2019-01-17T16:35:15.757Z,1.83
2019-01-17T16:37:43.993Z,1.43
2019-01-17T16:40:12.970Z,1.70
2019-01-17T16:42:41.209Z,1.70
2019-01-17T16:45:15.181Z,1.47
2019-01-17T16:47:43.453Z,1.37
2019-01-17T16:50:14.329Z,1.17
2019-01-17T16:52:42.564Z,1.80
2019-01-17T16:55:11.435Z,1.77
2019-01-17T16:57:39.675Z,1.60
2019-01-17T17:00:23.293Z,1.67
2019-01-17T17:02:51.533Z,1.30
2019-01-17T17:05:19.766Z,1.80
2019-01-17T17:07:47.993Z,1.60
2019-01-17T17:10:16.249Z,1.60
2019-01-17T17:12:44.482Z,1.60
2019-01-17T17:15:12.726Z,1.30
2019-01-17T17:17:40.958Z,1.60
2019-01-17T17:20:12.429Z,1.60
2019-01-17T17:22:40.670Z,1.70
2019-01-17T17:25:08.922Z,1.50
2019-01-17T17:27:37.153Z,1.63
2019-01-17T17:30:08.705Z,1.40
2019-01-17T17:32:36.937Z,1.43
2019-01-17T17:35:05.757Z,1.47
2019-01-17T17:37:33.998Z,1.33
2019-01-17T17:40:02.410Z,1.47
2019-01-17T17:42:30.646Z,1.30
2019-01-17T17:44:58.970Z,1.47
2019-01-17T17:47:27.228Z,1.57
2019-01-17T17:49:55.641Z,1.70
2019-01-17T17:52:23.874Z,1.60
2019-01-17T17:54:52.120Z,1.30
2019-01-17T17:57:20.357Z,1.40
2019-01-17T17:59:48.602Z,1.60
2019-01-17T18:02:18.489Z,1.40
2019-01-17T18:04:46.742Z,1.63
2019-01-17T18:07:14.981Z,1.20
2019-01-17T18:09:43.297Z,1.17
2019-01-17T18:12:11.529Z,1.20
2019-01-17T18:14:39.769Z,1.30
2019-01-17T18:17:08.004Z,1.33
2019-01-17T18:19:36.245Z,0.97
2019-01-17T18:22:04.488Z,1.17
2019-01-17T18:24:32.717Z,1.37
2019-01-17T18:27:00.974Z,1.43
2019-01-17T18:29:29.197Z,1.37
2019-01-17T18:31:57.565Z,1.10
2019-01-17T18:34:25.789Z,1.93
2019-01-17T18:36:54.357Z,1.90
2019-01-17T18:39:23.158Z,1.80
2019-01-17T18:41:51.405Z,2.57
2019-01-17T18:44:19.633Z,1.70
2019-01-17T18:46:48.064Z,1.27
2019-01-17T18:49:16.364Z,1.97
2019-01-17T18:51:45.507Z,2.03
2019-01-17T18:54:13.749Z,1.73
2019-01-17T18:56:42.278Z,1.60
2019-01-17T18:59:10.543Z,2.03
2019-01-17T19:01:38.883Z,2.33
2019-01-17T19:04:07.112Z,2.40
2019-01-17T19:06:35.356Z,1.60
2019-01-17T19:09:05.233Z,2.07
2019-01-17T19:11:33.483Z,2.10
2019-01-17T19:14:01.722Z,1.77
2019-01-17T19:16:29.965Z,2.10
2019-01-17T19:18:58.204Z,1.77
2019-01-17T19:21:26.458Z,2.60
2019-01-17T19:23:54.714Z,2.00
2019-01-17T19:26:22.960Z,2.00
2019-01-17T19:28:51.189Z,2.03
2019-01-17T19:31:19.437Z,1.83
2019-01-17T19:33:47.679Z,1.97
2019-01-17T19:36:15.917Z,2.40
2019-01-17T19:38:44.153Z,1.80
2019-01-17T19:41:12.431Z,2.67
2019-01-17T19:43:40.660Z,3.57
2019-01-17T19:46:08.909Z,2.40
2019-01-17T19:48:37.156Z,3.37
2019-01-17T19:51:05.394Z,2.40
2019-01-17T19:53:33.637Z,2.40
2019-01-17T19:56:01.869Z,2.20
2019-01-17T19:58:30.118Z,2.67
2019-01-17T20:00:58.349Z,2.40
2019-01-17T20:03:26.610Z,2.63
2019-01-17T20:05:55.129Z,2.10
2019-01-17T20:08:23.377Z,2.00
2019-01-17T20:10:51.613Z,2.30
2019-01-17T20:13:19.858Z,2.07
2019-01-17T20:15:48.089Z,2.40
2019-01-17T20:18:16.338Z,2.17
2019-01-17T20:20:44.579Z,2.47
2019-01-17T20:23:12.819Z,1.50
2019-01-17T20:25:41.049Z,2.00
2019-01-17T20:28:09.297Z,2.63
2019-01-17T20:30:37.529Z,2.30
2019-01-17T20:33:05.850Z,1.93
2019-01-17T20:35:34.081Z,2.13
2019-01-17T20:38:02.329Z,1.70
2019-01-17T20:40:30.566Z,2.97
2019-01-17T20:42:58.808Z,3.20
2019-01-17T20:45:27.055Z,2.30
2019-01-17T20:47:55.301Z,2.47
2019-01-17T20:50:26.517Z,2.20
2019-01-17T20:52:54.759Z,2.30
2019-01-17T20:55:22.996Z,2.50
2019-01-17T20:57:51.265Z,2.83
2019-01-17T21:00:28.833Z,2.10
2019-01-17T21:02:57.090Z,2.57
2019-01-17T21:05:26.157Z,2.07
2019-01-17T21:07:54.413Z,2.33
2019-01-17T21:10:22.657Z,1.43
2019-01-17T21:12:50.903Z,1.43
2019-01-17T21:15:19.147Z,1.53
2019-01-17T21:17:47.382Z,1.13
2019-01-17T21:20:15.662Z,1.97
2019-01-17T21:22:43.945Z,1.60
2019-01-17T21:25:17.673Z,1.73
2019-01-17T21:27:45.917Z,1.90
2019-01-17T21:30:22.629Z,1.40
2019-01-17T21:32:50.882Z,1.87
2019-01-17T21:35:19.118Z,1.43
2019-01-17T21:37:47.339Z,1.40
2019-01-17T21:40:17.827Z,1.47
2019-01-17T21:42:46.065Z,1.83
2019-01-17T21:45:16.055Z,1.57
2019-01-17T21:47:44.288Z,1.37
2019-01-17T21:50:15.301Z,1.30
2019-01-17T21:52:43.610Z,1.30
2019-01-17T21:55:11.870Z,1.50
2019-01-17T21:57:40.117Z,1.20
2019-01-17T22:00:14.117Z,1.50
2019-01-17T22:02:42.919Z,1.20
2019-01-17T22:05:11.183Z,1.50
2019-01-17T22:07:39.742Z,1.20
2019-01-17T22:10:11.065Z,1.67
2019-01-17T22:12:39.570Z,1.20
2019-01-17T22:15:10.919Z,1.10
2019-01-17T22:17:39.202Z,1.40
2019-01-17T22:20:10.386Z,1.50
2019-01-17T22:22:38.626Z,1.37
2019-01-17T22:25:09.831Z,1.30
2019-01-17T22:27:38.053Z,1.23
2019-01-17T22:30:26.868Z,0.90
2019-01-17T22:32:55.105Z,1.00
2019-01-17T22:35:23.357Z,1.20
2019-01-17T22:37:51.597Z,1.17
2019-01-17T22:40:19.921Z,1.30
2019-01-17T22:42:48.149Z,1.37
2019-01-17T22:45:19.212Z,1.00
2019-01-17T22:47:47.433Z,1.10
2019-01-17T22:50:17.529Z,1.40
2019-01-17T22:52:46.029Z,1.40
2019-01-17T22:55:14.293Z,1.27
2019-01-17T22:57:42.517Z,1.50
2019-01-17T23:00:30.912Z,1.40
2019-01-17T23:02:59.146Z,1.33
2019-01-17T23:05:27.398Z,1.60
2019-01-17T23:07:55.646Z,1.10
2019-01-17T23:10:23.881Z,1.10
2019-01-17T23:12:52.114Z,1.20
2019-01-17T23:15:20.369Z,1.33
2019-01-17T23:17:48.607Z,1.27
2019-01-17T23:20:16.853Z,1.00
2019-01-17T23:22:45.089Z,1.20
2019-01-17T23:25:13.338Z,1.00
2019-01-17T23:27:41.571Z,1.30
2019-01-17T23:30:12.549Z,1.10
2019-01-17T23:32:40.782Z,1.20
2019-01-17T23:35:09.102Z,1.00
2019-01-17T23:37:37.342Z,1.10
2019-01-17T23:40:08.433Z,1.40
2019-01-17T23:42:36.685Z,1.50
2019-01-17T23:45:08.430Z,1.10
2019-01-17T23:47:36.661Z,1.03
2019-01-17T23:50:10.062Z,1.00
2019-01-17T23:52:38.282Z,1.27
2019-01-17T23:55:07.564Z,1.20
2019-01-17T23:57:35.798Z,1.00
